sensor_id;sensor_type;location;lat;lon;timestamp;temperature;humidity
35613;DHT22;22054;51.646;7.078;2023-02-25T00:00:25;4.00;99.90
35613;DHT22;22054;51.646;7.078;2023-02-25T00:02:57;4.00;99.90
35613;DHT22;22054;51.646;7.078;2023-02-25T00:05:25;4.10;99.90
35613;DHT22;22054;51.646;7.078;2023-02-25T00:08:00;4.10;99.90
35613;DHT22;22054;51.646;7.078;2023-02-25T00:10:25;4.10;99.90
35613;DHT22;22054;51.646;7.078;2023-02-25T00:12:51;4.10;99.90
35613;DHT22;22054;51.646;7.078;2023-02-25T00:15:17;4.10;99.90
35613;DHT22;22054;51.646;7.078;2023-02-25T00:17:44;4.10;99.90
35613;DHT22;22054;51.646;7.078;2023-02-25T00:20:31;4.10;99.90
35613;DHT22;22054;51.646;7.078;2023-02-25T00:23:01;4.10;99.90
35613;DHT22;22054;51.646;7.078;2023-02-25T00:25:48;4.10;99.90
35613;DHT22;22054;51.646;7.078;2023-02-25T00:28:14;4.10;99.90
35613;DHT22;22054;51.646;7.078;2023-02-25T00:30:40;4.10;99.90
35613;DHT22;22054;51.646;7.078;2023-02-25T00:33:07;4.20;99.90
35613;DHT22;22054;51.646;7.078;2023-02-25T00:35:38;4.30;99.90
35613;DHT22;22054;51.646;7.078;2023-02-25T00:38:05;4.20;99.90
35613;DHT22;22054;51.646;7.078;2023-02-25T00:40:32;4.20;99.90
35613;DHT22;22054;51.646;7.078;2023-02-25T00:43:01;4.50;99.90
35613;DHT22;22054;51.646;7.078;2023-02-25T00:45:27;4.20;99.90
35613;DHT22;22054;51.646;7.078;2023-02-25T00:47:53;4.20;99.90
35613;DHT22;22054;51.646;7.078;2023-02-25T00:50:19;4.30;99.90
35613;DHT22;22054;51.646;7.078;2023-02-25T00:52:47;4.30;99.90
35613;DHT22;22054;51.646;7.078;2023-02-25T00:55:13;4.30;99.90
35613;DHT22;22054;51.646;7.078;2023-02-25T00:57:49;4.40;99.90
35613;DHT22;22054;51.646;7.078;2023-02-25T01:00:15;4.20;99.90
35613;DHT22;22054;51.646;7.078;2023-02-25T01:02:43;4.40;99.90
35613;DHT22;22054;51.646;7.078;2023-02-25T01:05:13;4.30;99.90
35613;DHT22;22054;51.646;7.078;2023-02-25T01:07:39;4.40;99.90
35613;DHT22;22054;51.646;7.078;2023-02-25T01:10:07;4.50;99.90
35613;DHT22;22054;51.646;7.078;2023-02-25T01:12:35;4.40;99.90
35613;DHT22;22054;51.646;7.078;2023-02-25T01:15:01;4.40;99.90
35613;DHT22;22054;51.646;7.078;2023-02-25T01:17:27;4.50;99.90
35613;DHT22;22054;51.646;7.078;2023-02-25T01:19:53;4.50;99.90
35613;DHT22;22054;51.646;7.078;2023-02-25T01:22:18;4.50;99.90
35613;DHT22;22054;51.646;7.078;2023-02-25T01:24:44;4.50;99.90
35613;DHT22;22054;51.646;7.078;2023-02-25T01:27:10;4.40;99.90
35613;DHT22;22054;51.646;7.078;2023-02-25T01:29:37;4.70;99.90
35613;DHT22;22054;51.646;7.078;2023-02-25T01:32:07;4.40;99.90
35613;DHT22;22054;51.646;7.078;2023-02-25T01:34:38;4.40;99.90
35613;DHT22;22054;51.646;7.078;2023-02-25T01:37:04;4.40;99.90
35613;DHT22;22054;51.646;7.078;2023-02-25T01:39:30;4.40;99.90
35613;DHT22;22054;51.646;7.078;2023-02-25T01:42:00;4.40;99.90
35613;DHT22;22054;51.646;7.078;2023-02-25T01:44:33;4.40;99.90
35613;DHT22;22054;51.646;7.078;2023-02-25T01:47:01;4.30;99.90
35613;DHT22;22054;51.646;7.078;2023-02-25T01:49:36;4.40;99.90
35613;DHT22;22054;51.646;7.078;2023-02-25T01:52:15;4.40;99.90
35613;DHT22;22054;51.646;7.078;2023-02-25T01:54:46;4.40;99.90
35613;DHT22;22054;51.646;7.078;2023-02-25T01:57:20;4.40;99.90
35613;DHT22;22054;51.646;7.078;2023-02-25T01:59:49;4.40;99.90
35613;DHT22;22054;51.646;7.078;2023-02-25T02:02:20;4.40;99.90
35613;DHT22;22054;51.646;7.078;2023-02-25T02:04:47;4.50;99.90
35613;DHT22;22054;51.646;7.078;2023-02-25T02:07:18;4.40;99.90
35613;DHT22;22054;51.646;7.078;2023-02-25T02:09:49;4.40;99.90
35613;DHT22;22054;51.646;7.078;2023-02-25T02:12:32;4.40;99.90
35613;DHT22;22054;51.646;7.078;2023-02-25T02:15:01;4.40;99.90
35613;DHT22;22054;51.646;7.078;2023-02-25T02:17:39;4.40;99.90
35613;DHT22;22054;51.646;7.078;2023-02-25T02:20:11;4.40;99.90
35613;DHT22;22054;51.646;7.078;2023-02-25T02:25:41;4.30;99.90
35613;DHT22;22054;51.646;7.078;2023-02-25T02:31:30;4.30;99.90
35613;DHT22;22054;51.646;7.078;2023-02-25T02:37:01;4.40;99.90
35613;DHT22;22054;51.646;7.078;2023-02-25T02:45:48;4.40;99.90
35613;DHT22;22054;51.646;7.078;2023-02-25T02:48:41;4.40;99.90
35613;DHT22;22054;51.646;7.078;2023-02-25T02:51:19;4.40;99.90
35613;DHT22;22054;51.646;7.078;2023-02-25T02:53:53;4.40;99.90
35613;DHT22;22054;51.646;7.078;2023-02-25T02:56:23;4.40;99.90
35613;DHT22;22054;51.646;7.078;2023-02-25T02:58:53;4.40;99.90
35613;DHT22;22054;51.646;7.078;2023-02-25T03:01:31;4.40;99.90
35613;DHT22;22054;51.646;7.078;2023-02-25T03:04:06;4.40;99.90
35613;DHT22;22054;51.646;7.078;2023-02-25T03:06:38;4.60;99.90
35613;DHT22;22054;51.646;7.078;2023-02-25T03:09:13;4.40;99.90
35613;DHT22;22054;51.646;7.078;2023-02-25T03:11:41;4.40;99.90
35613;DHT22;22054;51.646;7.078;2023-02-25T03:14:06;4.40;99.90
35613;DHT22;22054;51.646;7.078;2023-02-25T03:16:44;4.40;99.90
35613;DHT22;22054;51.646;7.078;2023-02-25T03:19:20;4.40;99.90
35613;DHT22;22054;51.646;7.078;2023-02-25T03:21:58;4.40;99.90
35613;DHT22;22054;51.646;7.078;2023-02-25T03:27:47;4.40;99.90
35613;DHT22;22054;51.646;7.078;2023-02-25T03:33:06;4.40;99.90
35613;DHT22;22054;51.646;7.078;2023-02-25T03:35:36;4.40;99.90
35613;DHT22;22054;51.646;7.078;2023-02-25T03:38:14;4.40;99.90
35613;DHT22;22054;51.646;7.078;2023-02-25T03:40:43;4.40;99.90
35613;DHT22;22054;51.646;7.078;2023-02-25T03:43:20;4.40;99.90
35613;DHT22;22054;51.646;7.078;2023-02-25T03:45:48;4.40;99.90
35613;DHT22;22054;51.646;7.078;2023-02-25T03:48:17;4.50;99.90
35613;DHT22;22054;51.646;7.078;2023-02-25T03:51:02;4.50;99.90
35613;DHT22;22054;51.646;7.078;2023-02-25T03:53:30;4.40;99.90
35613;DHT22;22054;51.646;7.078;2023-02-25T03:55:59;4.40;99.90
35613;DHT22;22054;51.646;7.078;2023-02-25T03:58:40;4.20;99.90
35613;DHT22;22054;51.646;7.078;2023-02-25T04:01:25;4.40;99.90
35613;DHT22;22054;51.646;7.078;2023-02-25T04:03:52;4.30;99.90
35613;DHT22;22054;51.646;7.078;2023-02-25T04:06:21;4.40;99.90
35613;DHT22;22054;51.646;7.078;2023-02-25T04:08:48;4.30;99.90
35613;DHT22;22054;51.646;7.078;2023-02-25T04:11:37;4.30;99.90
35613;DHT22;22054;51.646;7.078;2023-02-25T04:14:03;4.40;99.90
35613;DHT22;22054;51.646;7.078;2023-02-25T04:16:29;4.30;99.90
35613;DHT22;22054;51.646;7.078;2023-02-25T04:18:55;4.30;99.90
35613;DHT22;22054;51.646;7.078;2023-02-25T04:21:29;4.30;99.90
35613;DHT22;22054;51.646;7.078;2023-02-25T04:24:00;4.40;99.90
35613;DHT22;22054;51.646;7.078;2023-02-25T04:26:27;4.40;99.90
35613;DHT22;22054;51.646;7.078;2023-02-25T04:28:53;4.40;99.90
35613;DHT22;22054;51.646;7.078;2023-02-25T04:31:53;4.40;99.90
35613;DHT22;22054;51.646;7.078;2023-02-25T04:34:21;4.20;99.90
35613;DHT22;22054;51.646;7.078;2023-02-25T04:36:47;4.50;99.90
35613;DHT22;22054;51.646;7.078;2023-02-25T04:39:14;4.40;99.90
35613;DHT22;22054;51.646;7.078;2023-02-25T04:41:41;4.50;99.90
35613;DHT22;22054;51.646;7.078;2023-02-25T04:44:13;4.50;99.90
35613;DHT22;22054;51.646;7.078;2023-02-25T04:46:41;4.50;99.90
35613;DHT22;22054;51.646;7.078;2023-02-25T04:49:09;4.40;99.90
35613;DHT22;22054;51.646;7.078;2023-02-25T04:51:49;4.40;99.90
35613;DHT22;22054;51.646;7.078;2023-02-25T04:54:16;4.40;99.90
35613;DHT22;22054;51.646;7.078;2023-02-25T04:56:43;4.40;99.90
35613;DHT22;22054;51.646;7.078;2023-02-25T04:59:10;4.40;99.90
35613;DHT22;22054;51.646;7.078;2023-02-25T05:01:37;4.40;99.90
35613;DHT22;22054;51.646;7.078;2023-02-25T05:04:03;4.40;99.90
35613;DHT22;22054;51.646;7.078;2023-02-25T05:06:29;4.50;99.90
35613;DHT22;22054;51.646;7.078;2023-02-25T05:08:56;4.40;99.90
35613;DHT22;22054;51.646;7.078;2023-02-25T05:11:24;4.40;99.90
35613;DHT22;22054;51.646;7.078;2023-02-25T05:13:51;4.40;99.90
35613;DHT22;22054;51.646;7.078;2023-02-25T05:16:18;4.40;99.90
35613;DHT22;22054;51.646;7.078;2023-02-25T05:18:45;4.40;99.90
35613;DHT22;22054;51.646;7.078;2023-02-25T05:21:14;4.50;99.90
35613;DHT22;22054;51.646;7.078;2023-02-25T05:23:43;4.50;99.90
35613;DHT22;22054;51.646;7.078;2023-02-25T05:26:10;4.50;99.90
35613;DHT22;22054;51.646;7.078;2023-02-25T05:28:37;4.50;99.90
35613;DHT22;22054;51.646;7.078;2023-02-25T05:31:07;4.50;99.90
35613;DHT22;22054;51.646;7.078;2023-02-25T05:33:36;4.70;99.90
35613;DHT22;22054;51.646;7.078;2023-02-25T05:36:11;4.50;99.90
35613;DHT22;22054;51.646;7.078;2023-02-25T05:38:38;4.50;99.90
35613;DHT22;22054;51.646;7.078;2023-02-25T05:41:05;4.50;99.90
35613;DHT22;22054;51.646;7.078;2023-02-25T05:43:32;4.50;99.90
35613;DHT22;22054;51.646;7.078;2023-02-25T05:45:59;4.50;99.90
35613;DHT22;22054;51.646;7.078;2023-02-25T05:48:27;4.40;99.90
35613;DHT22;22054;51.646;7.078;2023-02-25T05:51:03;4.50;99.90
35613;DHT22;22054;51.646;7.078;2023-02-25T05:53:32;4.50;99.90
35613;DHT22;22054;51.646;7.078;2023-02-25T05:55:58;4.50;99.90
35613;DHT22;22054;51.646;7.078;2023-02-25T05:58:24;4.50;99.90
35613;DHT22;22054;51.646;7.078;2023-02-25T06:00:50;4.50;99.90
35613;DHT22;22054;51.646;7.078;2023-02-25T06:03:16;4.50;99.90
35613;DHT22;22054;51.646;7.078;2023-02-25T06:05:52;4.50;99.90
35613;DHT22;22054;51.646;7.078;2023-02-25T06:08:18;4.50;99.90
35613;DHT22;22054;51.646;7.078;2023-02-25T06:10:44;4.50;99.90
35613;DHT22;22054;51.646;7.078;2023-02-25T06:13:30;4.60;99.90
35613;DHT22;22054;51.646;7.078;2023-02-25T06:15:56;4.60;99.90
35613;DHT22;22054;51.646;7.078;2023-02-25T06:18:21;4.60;99.90
35613;DHT22;22054;51.646;7.078;2023-02-25T06:20:47;4.50;99.90
35613;DHT22;22054;51.646;7.078;2023-02-25T06:23:13;4.40;99.90
35613;DHT22;22054;51.646;7.078;2023-02-25T06:25:39;4.80;99.90
35613;DHT22;22054;51.646;7.078;2023-02-25T06:28:04;4.50;99.90
35613;DHT22;22054;51.646;7.078;2023-02-25T06:30:33;4.50;99.90
35613;DHT22;22054;51.646;7.078;2023-02-25T06:32:59;4.70;99.90
35613;DHT22;22054;51.646;7.078;2023-02-25T06:35:25;4.50;99.90
35613;DHT22;22054;51.646;7.078;2023-02-25T06:37:58;4.50;99.90
35613;DHT22;22054;51.646;7.078;2023-02-25T06:40:25;4.60;99.90
35613;DHT22;22054;51.646;7.078;2023-02-25T06:42:51;4.60;99.90
35613;DHT22;22054;51.646;7.078;2023-02-25T06:45:17;4.60;99.90
35613;DHT22;22054;51.646;7.078;2023-02-25T06:47:43;4.60;99.90
35613;DHT22;22054;51.646;7.078;2023-02-25T06:50:09;4.70;99.90
35613;DHT22;22054;51.646;7.078;2023-02-25T06:52:36;4.70;99.90
35613;DHT22;22054;51.646;7.078;2023-02-25T06:55:02;4.60;99.90
35613;DHT22;22054;51.646;7.078;2023-02-25T06:57:31;4.60;99.90
35613;DHT22;22054;51.646;7.078;2023-02-25T06:59:58;4.60;99.90
35613;DHT22;22054;51.646;7.078;2023-02-25T07:02:23;4.60;99.90
35613;DHT22;22054;51.646;7.078;2023-02-25T07:04:52;4.60;99.90
35613;DHT22;22054;51.646;7.078;2023-02-25T07:07:19;4.50;99.90
35613;DHT22;22054;51.646;7.078;2023-02-25T07:09:45;4.40;99.90
35613;DHT22;22054;51.646;7.078;2023-02-25T07:12:11;4.50;99.90
35613;DHT22;22054;51.646;7.078;2023-02-25T07:14:37;4.40;99.90
35613;DHT22;22054;51.646;7.078;2023-02-25T07:17:03;4.40;99.90
35613;DHT22;22054;51.646;7.078;2023-02-25T07:19:29;4.50;99.90
35613;DHT22;22054;51.646;7.078;2023-02-25T07:21:58;4.50;99.90
35613;DHT22;22054;51.646;7.078;2023-02-25T07:24:24;4.60;99.90
35613;DHT22;22054;51.646;7.078;2023-02-25T07:26:51;4.50;99.90
35613;DHT22;22054;51.646;7.078;2023-02-25T07:29:18;4.30;99.90
35613;DHT22;22054;51.646;7.078;2023-02-25T07:31:44;4.60;99.90
35613;DHT22;22054;51.646;7.078;2023-02-25T07:34:10;4.50;99.90
35613;DHT22;22054;51.646;7.078;2023-02-25T07:36:35;4.60;99.90
35613;DHT22;22054;51.646;7.078;2023-02-25T07:39:04;4.50;99.90
35613;DHT22;22054;51.646;7.078;2023-02-25T07:41:31;4.60;99.90
35613;DHT22;22054;51.646;7.078;2023-02-25T07:43:57;4.70;99.90
35613;DHT22;22054;51.646;7.078;2023-02-25T07:46:23;4.70;99.90
35613;DHT22;22054;51.646;7.078;2023-02-25T07:48:51;4.80;99.90
35613;DHT22;22054;51.646;7.078;2023-02-25T07:51:22;4.80;99.90
35613;DHT22;22054;51.646;7.078;2023-02-25T07:53:50;4.80;99.90
35613;DHT22;22054;51.646;7.078;2023-02-25T07:56:19;4.90;99.90
35613;DHT22;22054;51.646;7.078;2023-02-25T07:58:46;4.90;99.90
35613;DHT22;22054;51.646;7.078;2023-02-25T08:01:27;5.10;99.90
35613;DHT22;22054;51.646;7.078;2023-02-25T08:03:56;5.10;99.90
35613;DHT22;22054;51.646;7.078;2023-02-25T08:06:25;5.20;99.90
35613;DHT22;22054;51.646;7.078;2023-02-25T08:08:55;5.20;99.90
35613;DHT22;22054;51.646;7.078;2023-02-25T08:11:24;5.40;99.90
35613;DHT22;22054;51.646;7.078;2023-02-25T08:13:54;5.20;99.90
35613;DHT22;22054;51.646;7.078;2023-02-25T08:16:26;5.40;99.90
35613;DHT22;22054;51.646;7.078;2023-02-25T08:18:53;5.40;99.90
35613;DHT22;22054;51.646;7.078;2023-02-25T08:21:22;5.50;99.90
35613;DHT22;22054;51.646;7.078;2023-02-25T08:23:49;5.50;99.90
35613;DHT22;22054;51.646;7.078;2023-02-25T08:26:15;5.30;99.90
35613;DHT22;22054;51.646;7.078;2023-02-25T08:28:43;5.40;99.90
35613;DHT22;22054;51.646;7.078;2023-02-25T08:31:09;5.50;99.90
35613;DHT22;22054;51.646;7.078;2023-02-25T08:33:40;5.80;99.90
35613;DHT22;22054;51.646;7.078;2023-02-25T08:36:19;5.70;99.90
35613;DHT22;22054;51.646;7.078;2023-02-25T08:38:47;5.80;99.90
35613;DHT22;22054;51.646;7.078;2023-02-25T08:41:15;5.70;99.90
35613;DHT22;22054;51.646;7.078;2023-02-25T08:43:41;5.70;99.90
35613;DHT22;22054;51.646;7.078;2023-02-25T08:46:07;5.80;99.90
35613;DHT22;22054;51.646;7.078;2023-02-25T08:48:36;6.00;99.90
35613;DHT22;22054;51.646;7.078;2023-02-25T08:51:09;6.00;99.90
35613;DHT22;22054;51.646;7.078;2023-02-25T08:53:36;6.10;99.90
35613;DHT22;22054;51.646;7.078;2023-02-25T08:56:08;6.10;99.90
35613;DHT22;22054;51.646;7.078;2023-02-25T08:58:36;6.00;99.90
35613;DHT22;22054;51.646;7.078;2023-02-25T09:01:10;5.90;99.90
35613;DHT22;22054;51.646;7.078;2023-02-25T09:03:41;6.10;99.90
35613;DHT22;22054;51.646;7.078;2023-02-25T09:06:25;6.50;99.90
35613;DHT22;22054;51.646;7.078;2023-02-25T09:08:53;6.70;99.90
35613;DHT22;22054;51.646;7.078;2023-02-25T09:11:20;6.70;99.90
35613;DHT22;22054;51.646;7.078;2023-02-25T09:13:46;6.30;99.90
35613;DHT22;22054;51.646;7.078;2023-02-25T09:16:12;6.30;99.90
35613;DHT22;22054;51.646;7.078;2023-02-25T09:18:45;6.10;99.90
35613;DHT22;22054;51.646;7.078;2023-02-25T09:21:18;6.00;99.90
35613;DHT22;22054;51.646;7.078;2023-02-25T09:23:47;6.10;99.90
35613;DHT22;22054;51.646;7.078;2023-02-25T09:26:20;6.30;99.90
35613;DHT22;22054;51.646;7.078;2023-02-25T09:28:48;6.30;99.90
35613;DHT22;22054;51.646;7.078;2023-02-25T09:31:17;6.20;99.90
35613;DHT22;22054;51.646;7.078;2023-02-25T09:33:47;6.30;99.90
35613;DHT22;22054;51.646;7.078;2023-02-25T09:36:20;6.40;99.90
35613;DHT22;22054;51.646;7.078;2023-02-25T09:38:58;6.20;99.90
35613;DHT22;22054;51.646;7.078;2023-02-25T09:48:01;5.50;99.90
35613;DHT22;22054;51.646;7.078;2023-02-25T09:50:47;5.30;99.90
35613;DHT22;22054;51.646;7.078;2023-02-25T09:56:44;5.30;99.90
35613;DHT22;22054;51.646;7.078;2023-02-25T09:59:13;5.20;99.90
35613;DHT22;22054;51.646;7.078;2023-02-25T10:01:57;5.30;99.90
35613;DHT22;22054;51.646;7.078;2023-02-25T10:10:59;5.80;99.90
35613;DHT22;22054;51.646;7.078;2023-02-25T10:13:53;6.30;99.90
35613;DHT22;22054;51.646;7.078;2023-02-25T10:28:43;6.90;99.90
35613;DHT22;22054;51.646;7.078;2023-02-25T10:31:20;6.70;99.90
35613;DHT22;22054;51.646;7.078;2023-02-25T10:33:49;6.60;99.90
35613;DHT22;22054;51.646;7.078;2023-02-25T10:36:34;6.30;99.90
35613;DHT22;22054;51.646;7.078;2023-02-25T10:39:08;5.80;99.90
35613;DHT22;22054;51.646;7.078;2023-02-25T10:41:35;5.80;99.90
35613;DHT22;22054;51.646;7.078;2023-02-25T10:44:01;5.50;99.90
35613;DHT22;22054;51.646;7.078;2023-02-25T10:46:41;5.50;99.90
35613;DHT22;22054;51.646;7.078;2023-02-25T10:49:17;5.50;99.90
35613;DHT22;22054;51.646;7.078;2023-02-25T10:54:24;6.80;99.90
35613;DHT22;22054;51.646;7.078;2023-02-25T10:56:50;8.70;99.90
35613;DHT22;22054;51.646;7.078;2023-02-25T10:59:35;10.10;1.00
35613;DHT22;22054;51.646;7.078;2023-02-25T11:02:20;10.30;1.00
35613;DHT22;22054;51.646;7.078;2023-02-25T11:04:48;10.30;1.00
35613;DHT22;22054;51.646;7.078;2023-02-25T11:07:41;9.90;8.60
35613;DHT22;22054;51.646;7.078;2023-02-25T11:20:32;16.00;1.00
35613;DHT22;22054;51.646;7.078;2023-02-25T11:22:59;14.50;1.00
35613;DHT22;22054;51.646;7.078;2023-02-25T11:25:40;12.80;1.00
35613;DHT22;22054;51.646;7.078;2023-02-25T11:28:19;10.50;1.00
35613;DHT22;22054;51.646;7.078;2023-02-25T11:30:53;8.80;1.00
35613;DHT22;22054;51.646;7.078;2023-02-25T11:33:33;7.50;99.90
35613;DHT22;22054;51.646;7.078;2023-02-25T11:36:02;6.80;1.00
35613;DHT22;22054;51.646;7.078;2023-02-25T11:38:40;6.30;1.00
35613;DHT22;22054;51.646;7.078;2023-02-25T11:41:22;6.50;1.00
35613;DHT22;22054;51.646;7.078;2023-02-25T11:43:48;7.50;1.00
35613;DHT22;22054;51.646;7.078;2023-02-25T11:46:28;9.00;1.00
35613;DHT22;22054;51.646;7.078;2023-02-25T11:49:15;10.20;1.00
35613;DHT22;22054;51.646;7.078;2023-02-25T11:51:59;11.80;1.00
35613;DHT22;22054;51.646;7.078;2023-02-25T11:57:39;15.00;99.90
35613;DHT22;22054;51.646;7.078;2023-02-25T12:03:34;15.30;94.10
35613;DHT22;22054;51.646;7.078;2023-02-25T12:25:29;15.80;86.10
35613;DHT22;22054;51.646;7.078;2023-02-25T12:39:24;11.90;89.80
35613;DHT22;22054;51.646;7.078;2023-02-25T12:42:10;11.30;94.00
35613;DHT22;22054;51.646;7.078;2023-02-25T12:54:55;16.50;77.40
35613;DHT22;22054;51.646;7.078;2023-02-25T13:09:33;17.60;56.20
35613;DHT22;22054;51.646;7.078;2023-02-25T13:18:34;18.20;54.70
35613;DHT22;22054;51.646;7.078;2023-02-25T13:21:31;18.70;50.60
35613;DHT22;22054;51.646;7.078;2023-02-25T13:34:19;16.90;50.00
35613;DHT22;22054;51.646;7.078;2023-02-25T13:40:39;16.70;54.80
35613;DHT22;22054;51.646;7.078;2023-02-25T13:43:45;18.60;52.60
35613;DHT22;22054;51.646;7.078;2023-02-25T13:49:29;18.50;50.00
35613;DHT22;22054;51.646;7.078;2023-02-25T13:58:42;15.90;52.20
35613;DHT22;22054;51.646;7.078;2023-02-25T14:04:28;16.50;55.10
35613;DHT22;22054;51.646;7.078;2023-02-25T14:13:10;20.10;46.50
35613;DHT22;22054;51.646;7.078;2023-02-25T14:16:26;20.50;45.00
35613;DHT22;22054;51.646;7.078;2023-02-25T14:19:41;20.00;45.10
35613;DHT22;22054;51.646;7.078;2023-02-25T14:22:33;19.60;44.30
35613;DHT22;22054;51.646;7.078;2023-02-25T14:25:15;18.70;44.10
35613;DHT22;22054;51.646;7.078;2023-02-25T14:28:05;19.40;44.80
35613;DHT22;22054;51.646;7.078;2023-02-25T14:45:40;19.50;42.10
35613;DHT22;22054;51.646;7.078;2023-02-25T14:54:37;19.30;45.10
35613;DHT22;22054;51.646;7.078;2023-02-25T14:57:34;18.40;43.90
35613;DHT22;22054;51.646;7.078;2023-02-25T15:28:32;10.30;55.90
35613;DHT22;22054;51.646;7.078;2023-02-25T15:33:39;8.80;67.00
35613;DHT22;22054;51.646;7.078;2023-02-25T15:43:52;7.90;71.50
35613;DHT22;22054;51.646;7.078;2023-02-25T15:46:36;7.90;1.00
35613;DHT22;22054;51.646;7.078;2023-02-25T15:51:55;7.40;1.00
35613;DHT22;22054;51.646;7.078;2023-02-25T15:59:57;7.10;1.00
35613;DHT22;22054;51.646;7.078;2023-02-25T16:07:44;6.90;47.20
35613;DHT22;22054;51.646;7.078;2023-02-25T16:12:44;6.80;1.60
35613;DHT22;22054;51.646;7.078;2023-02-25T16:15:46;6.80;99.90
35613;DHT22;22054;51.646;7.078;2023-02-25T16:21:04;6.50;1.00
35613;DHT22;22054;51.646;7.078;2023-02-25T16:23:32;6.90;99.90
35613;DHT22;22054;51.646;7.078;2023-02-25T16:34:54;8.40;1.00
35613;DHT22;22054;51.646;7.078;2023-02-25T16:40:27;7.50;1.00
35613;DHT22;22054;51.646;7.078;2023-02-25T16:42:56;7.00;90.20
35613;DHT22;22054;51.646;7.078;2023-02-25T16:46:02;6.60;99.90
35613;DHT22;22054;51.646;7.078;2023-02-25T16:48:31;6.30;99.90
35613;DHT22;22054;51.646;7.078;2023-02-25T16:51:31;6.00;99.90
35613;DHT22;22054;51.646;7.078;2023-02-25T16:54:15;5.90;1.00
35613;DHT22;22054;51.646;7.078;2023-02-25T16:56:44;5.70;1.00
35613;DHT22;22054;51.646;7.078;2023-02-25T16:59:17;5.50;1.00
35613;DHT22;22054;51.646;7.078;2023-02-25T17:01:57;5.40;1.00
35613;DHT22;22054;51.646;7.078;2023-02-25T17:04:34;5.60;1.00
35613;DHT22;22054;51.646;7.078;2023-02-25T17:09:45;5.10;1.00
35613;DHT22;22054;51.646;7.078;2023-02-25T17:12:42;5.00;1.00
35613;DHT22;22054;51.646;7.078;2023-02-25T17:15:18;4.90;1.00
35613;DHT22;22054;51.646;7.078;2023-02-25T17:20:24;4.70;1.00
35613;DHT22;22054;51.646;7.078;2023-02-25T17:22:53;4.60;1.00
35613;DHT22;22054;51.646;7.078;2023-02-25T17:25:24;4.60;99.90
35613;DHT22;22054;51.646;7.078;2023-02-25T17:27:53;4.50;1.00
35613;DHT22;22054;51.646;7.078;2023-02-25T17:32:58;4.40;1.00
35613;DHT22;22054;51.646;7.078;2023-02-25T17:35:25;4.50;1.00
35613;DHT22;22054;51.646;7.078;2023-02-25T17:37:53;4.30;1.00
35613;DHT22;22054;51.646;7.078;2023-02-25T17:40:23;4.20;18.40
35613;DHT22;22054;51.646;7.078;2023-02-25T17:45:52;4.10;1.00
35613;DHT22;22054;51.646;7.078;2023-02-25T17:48:29;4.00;1.00
35613;DHT22;22054;51.646;7.078;2023-02-25T17:51:02;4.00;99.90
35613;DHT22;22054;51.646;7.078;2023-02-25T17:53:47;3.90;1.00
35613;DHT22;22054;51.646;7.078;2023-02-25T17:56:26;3.80;50.40
35613;DHT22;22054;51.646;7.078;2023-02-25T18:01:51;3.80;1.00
35613;DHT22;22054;51.646;7.078;2023-02-25T18:04:34;3.70;1.00
35613;DHT22;22054;51.646;7.078;2023-02-25T18:09:55;3.90;1.00
35613;DHT22;22054;51.646;7.078;2023-02-25T18:12:28;3.60;99.90
35613;DHT22;22054;51.646;7.078;2023-02-25T18:14:58;3.60;1.00
35613;DHT22;22054;51.646;7.078;2023-02-25T18:17:39;3.50;5.70
35613;DHT22;22054;51.646;7.078;2023-02-25T18:22:53;3.40;99.90
35613;DHT22;22054;51.646;7.078;2023-02-25T18:25:37;3.30;80.50
35613;DHT22;22054;51.646;7.078;2023-02-25T18:28:10;3.30;99.90
35613;DHT22;22054;51.646;7.078;2023-02-25T18:30:40;3.30;99.90
35613;DHT22;22054;51.646;7.078;2023-02-25T18:33:06;3.20;99.90
35613;DHT22;22054;51.646;7.078;2023-02-25T18:35:37;3.20;1.00
35613;DHT22;22054;51.646;7.078;2023-02-25T18:38:04;3.10;1.00
35613;DHT22;22054;51.646;7.078;2023-02-25T18:40:34;3.00;99.90
35613;DHT22;22054;51.646;7.078;2023-02-25T18:43:08;3.00;99.90
35613;DHT22;22054;51.646;7.078;2023-02-25T18:45:43;3.00;79.80
35613;DHT22;22054;51.646;7.078;2023-02-25T18:48:09;3.00;1.00
35613;DHT22;22054;51.646;7.078;2023-02-25T18:50:39;2.90;1.00
35613;DHT22;22054;51.646;7.078;2023-02-25T18:53:17;2.90;99.90
35613;DHT22;22054;51.646;7.078;2023-02-25T18:55:45;2.80;1.00
35613;DHT22;22054;51.646;7.078;2023-02-25T18:58:13;2.80;1.00
35613;DHT22;22054;51.646;7.078;2023-02-25T19:00:40;2.80;99.90
35613;DHT22;22054;51.646;7.078;2023-02-25T19:03:13;2.70;1.00
35613;DHT22;22054;51.646;7.078;2023-02-25T19:05:41;2.50;1.00
35613;DHT22;22054;51.646;7.078;2023-02-25T19:08:15;2.70;1.00
35613;DHT22;22054;51.646;7.078;2023-02-25T19:10:41;2.50;1.00
35613;DHT22;22054;51.646;7.078;2023-02-25T19:13:19;2.40;1.00
35613;DHT22;22054;51.646;7.078;2023-02-25T19:15:47;2.40;1.00
35613;DHT22;22054;51.646;7.078;2023-02-25T19:18:14;2.40;99.90
35613;DHT22;22054;51.646;7.078;2023-02-25T19:20:41;2.30;1.00
35613;DHT22;22054;51.646;7.078;2023-02-25T19:23:13;2.30;1.00
35613;DHT22;22054;51.646;7.078;2023-02-25T19:25:46;2.40;1.00
35613;DHT22;22054;51.646;7.078;2023-02-25T19:28:15;2.20;1.00
35613;DHT22;22054;51.646;7.078;2023-02-25T19:30:42;2.20;99.90
35613;DHT22;22054;51.646;7.078;2023-02-25T19:33:09;2.10;99.90
35613;DHT22;22054;51.646;7.078;2023-02-25T19:35:38;2.30;99.90
35613;DHT22;22054;51.646;7.078;2023-02-25T19:38:06;2.10;99.90
35613;DHT22;22054;51.646;7.078;2023-02-25T19:40:39;1.90;99.90
35613;DHT22;22054;51.646;7.078;2023-02-25T19:43:05;2.00;99.90
35613;DHT22;22054;51.646;7.078;2023-02-25T19:45:31;2.00;99.90
35613;DHT22;22054;51.646;7.078;2023-02-25T19:47:57;1.90;99.90
35613;DHT22;22054;51.646;7.078;2023-02-25T19:50:25;1.90;99.90
35613;DHT22;22054;51.646;7.078;2023-02-25T19:52:56;1.90;99.90
35613;DHT22;22054;51.646;7.078;2023-02-25T19:55:22;1.90;99.90
35613;DHT22;22054;51.646;7.078;2023-02-25T19:57:50;1.80;99.90
35613;DHT22;22054;51.646;7.078;2023-02-25T20:00:19;1.80;1.00
35613;DHT22;22054;51.646;7.078;2023-02-25T20:02:50;1.80;1.00
35613;DHT22;22054;51.646;7.078;2023-02-25T20:05:18;1.70;1.00
35613;DHT22;22054;51.646;7.078;2023-02-25T20:07:45;1.80;1.00
35613;DHT22;22054;51.646;7.078;2023-02-25T20:10:12;1.60;1.00
35613;DHT22;22054;51.646;7.078;2023-02-25T20:12:40;1.60;1.00
35613;DHT22;22054;51.646;7.078;2023-02-25T20:15:08;1.50;1.00
35613;DHT22;22054;51.646;7.078;2023-02-25T20:17:36;1.50;1.00
35613;DHT22;22054;51.646;7.078;2023-02-25T20:20:03;1.40;1.00
35613;DHT22;22054;51.646;7.078;2023-02-25T20:22:30;1.50;1.00
35613;DHT22;22054;51.646;7.078;2023-02-25T20:24:55;1.70;1.00
35613;DHT22;22054;51.646;7.078;2023-02-25T20:27:21;1.60;1.00
35613;DHT22;22054;51.646;7.078;2023-02-25T20:29:47;1.50;1.00
35613;DHT22;22054;51.646;7.078;2023-02-25T20:32:13;1.40;1.00
35613;DHT22;22054;51.646;7.078;2023-02-25T20:34:39;1.40;1.00
35613;DHT22;22054;51.646;7.078;2023-02-25T20:37:05;1.40;1.00
35613;DHT22;22054;51.646;7.078;2023-02-25T20:42:24;1.50;1.00
35613;DHT22;22054;51.646;7.078;2023-02-25T20:44:51;1.60;1.00
35613;DHT22;22054;51.646;7.078;2023-02-25T20:49:51;1.50;1.00
35613;DHT22;22054;51.646;7.078;2023-02-25T20:52:18;1.60;1.00